sensor_id;sensor_type;location;lat;lon;timestamp;temperature;humidity
8422;DHT22;4248;48.196;10.924;2023-05-10T00:01:55;14.20;65.40
8422;DHT22;4248;48.196;10.924;2023-05-10T00:04:21;14.20;65.50
8422;DHT22;4248;48.196;10.924;2023-05-10T00:06:46;14.20;65.70
8422;DHT22;4248;48.196;10.924;2023-05-10T00:09:12;14.20;65.80
8422;DHT22;4248;48.196;10.924;2023-05-10T00:11:38;14.20;66.00
8422;DHT22;4248;48.196;10.924;2023-05-10T00:14:03;14.20;65.90
8422;DHT22;4248;48.196;10.924;2023-05-10T00:16:29;14.20;65.90
8422;DHT22;4248;48.196;10.924;2023-05-10T00:18:54;14.20;65.90
8422;DHT22;4248;48.196;10.924;2023-05-10T00:21:20;14.20;66.00
8422;DHT22;4248;48.196;10.924;2023-05-10T00:23:46;14.20;66.00
8422;DHT22;4248;48.196;10.924;2023-05-10T00:26:11;14.20;66.10
8422;DHT22;4248;48.196;10.924;2023-05-10T00:28:37;14.20;66.30
8422;DHT22;4248;48.196;10.924;2023-05-10T00:31:02;14.10;66.40
8422;DHT22;4248;48.196;10.924;2023-05-10T00:33:28;14.10;66.60
8422;DHT22;4248;48.196;10.924;2023-05-10T00:35:54;14.10;66.70
8422;DHT22;4248;48.196;10.924;2023-05-10T00:38:19;14.10;66.70
8422;DHT22;4248;48.196;10.924;2023-05-10T00:40:45;14.10;66.70
8422;DHT22;4248;48.196;10.924;2023-05-10T00:43:10;14.10;66.80
8422;DHT22;4248;48.196;10.924;2023-05-10T00:45:37;14.10;66.70
8422;DHT22;4248;48.196;10.924;2023-05-10T00:48:04;14.10;66.70
8422;DHT22;4248;48.196;10.924;2023-05-10T00:50:33;14.10;66.60
8422;DHT22;4248;48.196;10.924;2023-05-10T00:53:00;14.00;66.90
8422;DHT22;4248;48.196;10.924;2023-05-10T00:55:26;14.00;67.20
8422;DHT22;4248;48.196;10.924;2023-05-10T00:57:53;14.00;67.30
8422;DHT22;4248;48.196;10.924;2023-05-10T01:00:19;14.00;67.30
8422;DHT22;4248;48.196;10.924;2023-05-10T01:02:45;13.90;67.20
8422;DHT22;4248;48.196;10.924;2023-05-10T01:05:12;13.90;67.20
8422;DHT22;4248;48.196;10.924;2023-05-10T01:07:38;13.90;67.20
8422;DHT22;4248;48.196;10.924;2023-05-10T01:10:07;13.90;67.20
8422;DHT22;4248;48.196;10.924;2023-05-10T01:12:35;13.90;67.20
8422;DHT22;4248;48.196;10.924;2023-05-10T01:15:02;13.90;67.10
8422;DHT22;4248;48.196;10.924;2023-05-10T01:17:29;13.90;67.30
8422;DHT22;4248;48.196;10.924;2023-05-10T01:19:55;13.90;67.30
8422;DHT22;4248;48.196;10.924;2023-05-10T01:22:47;13.80;67.50
8422;DHT22;4248;48.196;10.924;2023-05-10T01:31:14;13.70;67.80
8422;DHT22;4248;48.196;10.924;2023-05-10T01:33:47;13.70;67.80
8422;DHT22;4248;48.196;10.924;2023-05-10T01:36:23;13.70;67.80
8422;DHT22;4248;48.196;10.924;2023-05-10T01:39:00;13.70;67.80
8422;DHT22;4248;48.196;10.924;2023-05-10T01:44:24;13.70;68.00
8422;DHT22;4248;48.196;10.924;2023-05-10T01:47:01;13.70;67.80
8422;DHT22;4248;48.196;10.924;2023-05-10T01:49:31;13.70;67.80
8422;DHT22;4248;48.196;10.924;2023-05-10T01:52:07;13.70;67.80
8422;DHT22;4248;48.196;10.924;2023-05-10T01:54:34;13.70;67.80
8422;DHT22;4248;48.196;10.924;2023-05-10T01:57:05;13.70;67.90
8422;DHT22;4248;48.196;10.924;2023-05-10T01:59:36;13.70;67.80
8422;DHT22;4248;48.196;10.924;2023-05-10T02:02:07;13.70;67.80
8422;DHT22;4248;48.196;10.924;2023-05-10T02:04:38;13.60;67.80
8422;DHT22;4248;48.196;10.924;2023-05-10T02:07:05;13.60;67.70
8422;DHT22;4248;48.196;10.924;2023-05-10T02:09:33;13.60;67.70
8422;DHT22;4248;48.196;10.924;2023-05-10T02:12:00;13.60;67.80
8422;DHT22;4248;48.196;10.924;2023-05-10T02:14:29;13.70;67.80
8422;DHT22;4248;48.196;10.924;2023-05-10T02:16:56;13.70;67.90
8422;DHT22;4248;48.196;10.924;2023-05-10T02:19:24;13.70;67.80
8422;DHT22;4248;48.196;10.924;2023-05-10T02:21:51;13.70;67.80
8422;DHT22;4248;48.196;10.924;2023-05-10T02:24:17;13.80;67.90
8422;DHT22;4248;48.196;10.924;2023-05-10T02:26:45;13.80;67.90
8422;DHT22;4248;48.196;10.924;2023-05-10T02:29:12;13.80;67.90
8422;DHT22;4248;48.196;10.924;2023-05-10T02:31:39;13.80;67.90
8422;DHT22;4248;48.196;10.924;2023-05-10T02:34:09;13.80;67.90
8422;DHT22;4248;48.196;10.924;2023-05-10T02:36:36;13.80;68.00
8422;DHT22;4248;48.196;10.924;2023-05-10T02:39:03;13.80;67.90
8422;DHT22;4248;48.196;10.924;2023-05-10T02:41:31;13.80;67.90
8422;DHT22;4248;48.196;10.924;2023-05-10T02:43:59;13.90;68.00
8422;DHT22;4248;48.196;10.924;2023-05-10T02:46:26;13.80;67.90
8422;DHT22;4248;48.196;10.924;2023-05-10T02:48:52;13.80;67.90
8422;DHT22;4248;48.196;10.924;2023-05-10T02:51:18;13.90;68.00
8422;DHT22;4248;48.196;10.924;2023-05-10T02:53:46;13.80;67.90
8422;DHT22;4248;48.196;10.924;2023-05-10T02:56:25;13.80;67.90
8422;DHT22;4248;48.196;10.924;2023-05-10T02:58:53;13.80;68.00
8422;DHT22;4248;48.196;10.924;2023-05-10T03:01:20;13.80;68.10
8422;DHT22;4248;48.196;10.924;2023-05-10T03:03:45;13.80;68.10
8422;DHT22;4248;48.196;10.924;2023-05-10T03:06:11;13.90;68.30
8422;DHT22;4248;48.196;10.924;2023-05-10T03:08:36;13.90;68.10
8422;DHT22;4248;48.196;10.924;2023-05-10T03:13:56;14.00;68.10
8422;DHT22;4248;48.196;10.924;2023-05-10T03:16:50;14.00;68.10
8422;DHT22;4248;48.196;10.924;2023-05-10T03:19:43;14.00;68.20
8422;DHT22;4248;48.196;10.924;2023-05-10T03:22:10;14.00;68.10
8422;DHT22;4248;48.196;10.924;2023-05-10T03:24:36;14.00;68.10
8422;DHT22;4248;48.196;10.924;2023-05-10T03:27:04;14.00;68.10
8422;DHT22;4248;48.196;10.924;2023-05-10T03:29:31;14.00;68.10
8422;DHT22;4248;48.196;10.924;2023-05-10T03:31:58;14.00;68.10
8422;DHT22;4248;48.196;10.924;2023-05-10T03:34:25;14.00;68.20
8422;DHT22;4248;48.196;10.924;2023-05-10T03:36:51;14.00;68.10
8422;DHT22;4248;48.196;10.924;2023-05-10T03:39:16;14.00;69.40
8422;DHT22;4248;48.196;10.924;2023-05-10T03:41:42;14.00;68.20
8422;DHT22;4248;48.196;10.924;2023-05-10T03:44:07;14.00;68.20
8422;DHT22;4248;48.196;10.924;2023-05-10T03:46:33;14.00;68.20
8422;DHT22;4248;48.196;10.924;2023-05-10T03:48:58;13.90;68.90
8422;DHT22;4248;48.196;10.924;2023-05-10T03:51:24;13.70;70.80
8422;DHT22;4248;48.196;10.924;2023-05-10T03:53:53;13.60;71.10
8422;DHT22;4248;48.196;10.924;2023-05-10T03:56:19;13.50;72.10
8422;DHT22;4248;48.196;10.924;2023-05-10T03:58:46;13.40;72.70
8422;DHT22;4248;48.196;10.924;2023-05-10T04:01:12;13.40;72.70
8422;DHT22;4248;48.196;10.924;2023-05-10T04:03:37;13.30;73.20
8422;DHT22;4248;48.196;10.924;2023-05-10T04:06:04;13.20;74.20
8422;DHT22;4248;48.196;10.924;2023-05-10T04:08:29;13.10;74.70
8422;DHT22;4248;48.196;10.924;2023-05-10T04:11:08;13.10;75.10
8422;DHT22;4248;48.196;10.924;2023-05-10T04:13:34;13.10;75.30
8422;DHT22;4248;48.196;10.924;2023-05-10T04:16:00;13.10;75.30
8422;DHT22;4248;48.196;10.924;2023-05-10T04:18:26;13.10;75.50
8422;DHT22;4248;48.196;10.924;2023-05-10T04:20:51;13.10;75.20
8422;DHT22;4248;48.196;10.924;2023-05-10T04:23:17;13.10;74.90
8422;DHT22;4248;48.196;10.924;2023-05-10T04:25:42;13.20;74.40
8422;DHT22;4248;48.196;10.924;2023-05-10T04:28:08;13.20;74.60
8422;DHT22;4248;48.196;10.924;2023-05-10T04:30:34;13.20;74.70
8422;DHT22;4248;48.196;10.924;2023-05-10T04:33:00;13.20;74.80
8422;DHT22;4248;48.196;10.924;2023-05-10T04:35:27;13.30;74.80
8422;DHT22;4248;48.196;10.924;2023-05-10T04:37:53;13.30;74.60
8422;DHT22;4248;48.196;10.924;2023-05-10T04:40:19;13.30;74.50
8422;DHT22;4248;48.196;10.924;2023-05-10T04:42:45;13.30;74.30
8422;DHT22;4248;48.196;10.924;2023-05-10T04:45:10;13.40;74.10
8422;DHT22;4248;48.196;10.924;2023-05-10T04:47:36;13.30;73.90
8422;DHT22;4248;48.196;10.924;2023-05-10T04:50:05;13.40;74.10
8422;DHT22;4248;48.196;10.924;2023-05-10T04:52:31;13.30;74.00
8422;DHT22;4248;48.196;10.924;2023-05-10T04:54:57;13.30;74.10
8422;DHT22;4248;48.196;10.924;2023-05-10T04:57:23;13.30;74.70
8422;DHT22;4248;48.196;10.924;2023-05-10T04:59:48;13.20;75.10
8422;DHT22;4248;48.196;10.924;2023-05-10T05:02:14;13.30;75.20
8422;DHT22;4248;48.196;10.924;2023-05-10T05:04:39;13.30;75.30
8422;DHT22;4248;48.196;10.924;2023-05-10T05:07:05;13.30;75.10
8422;DHT22;4248;48.196;10.924;2023-05-10T05:09:30;13.40;74.80
8422;DHT22;4248;48.196;10.924;2023-05-10T05:11:57;13.40;74.70
8422;DHT22;4248;48.196;10.924;2023-05-10T05:14:23;13.40;74.70
8422;DHT22;4248;48.196;10.924;2023-05-10T05:16:51;13.50;74.60
8422;DHT22;4248;48.196;10.924;2023-05-10T05:19:17;13.50;74.50
8422;DHT22;4248;48.196;10.924;2023-05-10T05:21:42;13.50;74.40
8422;DHT22;4248;48.196;10.924;2023-05-10T05:24:08;13.50;74.30
8422;DHT22;4248;48.196;10.924;2023-05-10T05:26:34;13.60;74.60
8422;DHT22;4248;48.196;10.924;2023-05-10T05:28:59;13.60;74.30
8422;DHT22;4248;48.196;10.924;2023-05-10T05:31:25;13.60;74.50
8422;DHT22;4248;48.196;10.924;2023-05-10T05:33:50;13.60;74.40
8422;DHT22;4248;48.196;10.924;2023-05-10T05:36:16;13.60;74.50
8422;DHT22;4248;48.196;10.924;2023-05-10T05:38:42;13.60;74.50
8422;DHT22;4248;48.196;10.924;2023-05-10T05:41:08;13.70;74.40
8422;DHT22;4248;48.196;10.924;2023-05-10T05:43:34;13.70;74.10
8422;DHT22;4248;48.196;10.924;2023-05-10T05:45:59;13.70;74.20
8422;DHT22;4248;48.196;10.924;2023-05-10T05:48:25;13.70;74.10
8422;DHT22;4248;48.196;10.924;2023-05-10T05:50:54;13.80;74.10
8422;DHT22;4248;48.196;10.924;2023-05-10T05:53:20;13.80;73.80
8422;DHT22;4248;48.196;10.924;2023-05-10T05:55:57;13.90;73.40
8422;DHT22;4248;48.196;10.924;2023-05-10T05:58:23;13.90;73.50
8422;DHT22;4248;48.196;10.924;2023-05-10T06:00:50;13.80;73.50
8422;DHT22;4248;48.196;10.924;2023-05-10T06:03:15;13.80;73.50
8422;DHT22;4248;48.196;10.924;2023-05-10T06:05:41;13.90;73.00
8422;DHT22;4248;48.196;10.924;2023-05-10T06:08:07;14.00;73.00
8422;DHT22;4248;48.196;10.924;2023-05-10T06:10:32;13.90;72.90
8422;DHT22;4248;48.196;10.924;2023-05-10T06:12:58;14.00;72.60
8422;DHT22;4248;48.196;10.924;2023-05-10T06:15:23;14.10;72.40
8422;DHT22;4248;48.196;10.924;2023-05-10T06:17:49;14.10;72.20
8422;DHT22;4248;48.196;10.924;2023-05-10T06:20:15;14.20;72.10
8422;DHT22;4248;48.196;10.924;2023-05-10T06:22:41;14.20;72.00
8422;DHT22;4248;48.196;10.924;2023-05-10T06:25:07;14.20;71.80
8422;DHT22;4248;48.196;10.924;2023-05-10T06:27:33;14.20;72.90
8422;DHT22;4248;48.196;10.924;2023-05-10T06:29:59;14.30;71.70
8422;DHT22;4248;48.196;10.924;2023-05-10T06:32:25;14.30;71.50
8422;DHT22;4248;48.196;10.924;2023-05-10T06:34:50;14.50;71.20
8422;DHT22;4248;48.196;10.924;2023-05-10T06:37:16;14.60;70.90
8422;DHT22;4248;48.196;10.924;2023-05-10T06:39:41;14.70;70.60
8422;DHT22;4248;48.196;10.924;2023-05-10T06:42:07;14.80;70.10
8422;DHT22;4248;48.196;10.924;2023-05-10T06:44:33;14.80;70.00
8422;DHT22;4248;48.196;10.924;2023-05-10T06:46:59;15.00;70.00
8422;DHT22;4248;48.196;10.924;2023-05-10T06:49:24;15.20;69.20
8422;DHT22;4248;48.196;10.924;2023-05-10T06:51:50;15.40;69.40
8422;DHT22;4248;48.196;10.924;2023-05-10T06:54:17;15.60;68.90
8422;DHT22;4248;48.196;10.924;2023-05-10T06:56:43;15.80;67.60
8422;DHT22;4248;48.196;10.924;2023-05-10T06:59:09;16.10;67.50
8422;DHT22;4248;48.196;10.924;2023-05-10T07:01:34;16.40;66.40
8422;DHT22;4248;48.196;10.924;2023-05-10T07:04:00;16.40;65.20
8422;DHT22;4248;48.196;10.924;2023-05-10T07:06:26;16.20;65.30
8422;DHT22;4248;48.196;10.924;2023-05-10T07:08:52;16.20;65.10
8422;DHT22;4248;48.196;10.924;2023-05-10T07:11:18;16.30;64.60
8422;DHT22;4248;48.196;10.924;2023-05-10T07:13:43;16.30;64.80
8422;DHT22;4248;48.196;10.924;2023-05-10T07:16:11;16.70;64.40
8422;DHT22;4248;48.196;10.924;2023-05-10T07:18:37;16.90;63.50
8422;DHT22;4248;48.196;10.924;2023-05-10T07:21:03;17.00;62.90
8422;DHT22;4248;48.196;10.924;2023-05-10T07:23:28;17.30;62.40
8422;DHT22;4248;48.196;10.924;2023-05-10T07:25:55;17.40;60.70
8422;DHT22;4248;48.196;10.924;2023-05-10T07:28:23;17.00;59.70
8422;DHT22;4248;48.196;10.924;2023-05-10T07:30:49;16.90;59.90
8422;DHT22;4248;48.196;10.924;2023-05-10T07:33:15;17.00;58.10
8422;DHT22;4248;48.196;10.924;2023-05-10T07:35:41;16.90;58.00
8422;DHT22;4248;48.196;10.924;2023-05-10T07:38:07;16.90;58.10
8422;DHT22;4248;48.196;10.924;2023-05-10T07:40:33;16.80;57.00
8422;DHT22;4248;48.196;10.924;2023-05-10T07:42:59;16.70;57.30
8422;DHT22;4248;48.196;10.924;2023-05-10T07:45:27;16.60;56.30
8422;DHT22;4248;48.196;10.924;2023-05-10T07:47:52;16.50;57.30
8422;DHT22;4248;48.196;10.924;2023-05-10T07:50:18;16.50;57.70
8422;DHT22;4248;48.196;10.924;2023-05-10T07:52:43;16.40;57.60
8422;DHT22;4248;48.196;10.924;2023-05-10T07:55:09;16.30;57.40
8422;DHT22;4248;48.196;10.924;2023-05-10T07:57:35;16.30;57.40
8422;DHT22;4248;48.196;10.924;2023-05-10T08:00:01;16.40;57.50
8422;DHT22;4248;48.196;10.924;2023-05-10T08:02:26;16.40;57.60
8422;DHT22;4248;48.196;10.924;2023-05-10T08:04:52;16.50;58.50
8422;DHT22;4248;48.196;10.924;2023-05-10T08:07:18;16.50;56.80
8422;DHT22;4248;48.196;10.924;2023-05-10T08:09:43;16.40;56.10
8422;DHT22;4248;48.196;10.924;2023-05-10T08:12:09;16.50;57.30
8422;DHT22;4248;48.196;10.924;2023-05-10T08:14:35;16.70;57.70
8422;DHT22;4248;48.196;10.924;2023-05-10T08:17:02;16.60;56.20
8422;DHT22;4248;48.196;10.924;2023-05-10T08:19:28;16.70;56.00
8422;DHT22;4248;48.196;10.924;2023-05-10T08:21:54;16.70;55.80
8422;DHT22;4248;48.196;10.924;2023-05-10T08:24:21;16.70;55.00
8422;DHT22;4248;48.196;10.924;2023-05-10T08:26:47;16.80;55.00
8422;DHT22;4248;48.196;10.924;2023-05-10T08:29:13;16.90;54.80
8422;DHT22;4248;48.196;10.924;2023-05-10T08:31:39;17.20;54.50
8422;DHT22;4248;48.196;10.924;2023-05-10T08:34:05;17.10;53.90
8422;DHT22;4248;48.196;10.924;2023-05-10T08:36:30;17.00;54.20
8422;DHT22;4248;48.196;10.924;2023-05-10T08:38:57;17.00;54.20
8422;DHT22;4248;48.196;10.924;2023-05-10T08:41:24;17.30;53.90
8422;DHT22;4248;48.196;10.924;2023-05-10T08:43:51;17.60;52.10
8422;DHT22;4248;48.196;10.924;2023-05-10T08:46:19;17.60;51.10
8422;DHT22;4248;48.196;10.924;2023-05-10T08:48:45;17.70;50.50
8422;DHT22;4248;48.196;10.924;2023-05-10T08:51:14;17.70;51.00
8422;DHT22;4248;48.196;10.924;2023-05-10T08:53:40;17.60;50.50
8422;DHT22;4248;48.196;10.924;2023-05-10T08:56:06;17.70;49.90
8422;DHT22;4248;48.196;10.924;2023-05-10T08:58:32;17.70;49.90
8422;DHT22;4248;48.196;10.924;2023-05-10T09:00:59;17.90;49.70
8422;DHT22;4248;48.196;10.924;2023-05-10T09:03:25;18.50;50.00
8422;DHT22;4248;48.196;10.924;2023-05-10T09:05:50;19.10;46.80
8422;DHT22;4248;48.196;10.924;2023-05-10T09:08:17;18.90;45.10
8422;DHT22;4248;48.196;10.924;2023-05-10T09:10:44;18.80;43.80
8422;DHT22;4248;48.196;10.924;2023-05-10T09:13:14;18.50;44.70
8422;DHT22;4248;48.196;10.924;2023-05-10T09:15:40;18.00;45.20
8422;DHT22;4248;48.196;10.924;2023-05-10T09:18:06;17.50;46.30
8422;DHT22;4248;48.196;10.924;2023-05-10T09:20:32;16.90;49.90
8422;DHT22;4248;48.196;10.924;2023-05-10T09:22:57;16.90;50.80
8422;DHT22;4248;48.196;10.924;2023-05-10T09:25:23;17.00;51.70
8422;DHT22;4248;48.196;10.924;2023-05-10T09:27:49;17.10;52.10
8422;DHT22;4248;48.196;10.924;2023-05-10T09:30:29;17.30;51.80
8422;DHT22;4248;48.196;10.924;2023-05-10T09:32:56;17.60;51.10
8422;DHT22;4248;48.196;10.924;2023-05-10T09:35:25;17.90;50.00
8422;DHT22;4248;48.196;10.924;2023-05-10T09:37:53;17.80;49.90
8422;DHT22;4248;48.196;10.924;2023-05-10T09:40:21;17.60;49.90
8422;DHT22;4248;48.196;10.924;2023-05-10T09:43:04;17.40;50.50
8422;DHT22;4248;48.196;10.924;2023-05-10T09:45:32;16.90;51.30
8422;DHT22;4248;48.196;10.924;2023-05-10T09:47:58;16.60;52.90
8422;DHT22;4248;48.196;10.924;2023-05-10T09:50:25;16.70;53.90
8422;DHT22;4248;48.196;10.924;2023-05-10T09:55:22;17.20;53.40
8422;DHT22;4248;48.196;10.924;2023-05-10T09:57:48;17.30;52.90
8422;DHT22;4248;48.196;10.924;2023-05-10T10:00:21;17.40;51.50
8422;DHT22;4248;48.196;10.924;2023-05-10T10:02:53;17.50;52.30
8422;DHT22;4248;48.196;10.924;2023-05-10T10:05:19;17.50;51.50
8422;DHT22;4248;48.196;10.924;2023-05-10T10:07:45;17.40;50.70
8422;DHT22;4248;48.196;10.924;2023-05-10T10:10:11;17.00;51.30
8422;DHT22;4248;48.196;10.924;2023-05-10T10:12:39;16.90;52.60
8422;DHT22;4248;48.196;10.924;2023-05-10T10:15:05;16.80;52.90
8422;DHT22;4248;48.196;10.924;2023-05-10T10:17:32;16.70;53.00
8422;DHT22;4248;48.196;10.924;2023-05-10T10:19:59;16.70;53.30
8422;DHT22;4248;48.196;10.924;2023-05-10T10:22:25;16.60;53.60
8422;DHT22;4248;48.196;10.924;2023-05-10T10:24:51;16.90;53.40
8422;DHT22;4248;48.196;10.924;2023-05-10T10:27:24;17.30;52.30
8422;DHT22;4248;48.196;10.924;2023-05-10T10:30:10;17.60;51.60
8422;DHT22;4248;48.196;10.924;2023-05-10T10:35:17;18.20;49.30
8422;DHT22;4248;48.196;10.924;2023-05-10T10:37:48;18.30;49.10
8422;DHT22;4248;48.196;10.924;2023-05-10T10:40:26;18.20;49.00
8422;DHT22;4248;48.196;10.924;2023-05-10T10:42:53;17.80;48.30
8422;DHT22;4248;48.196;10.924;2023-05-10T10:45:19;17.80;48.30
8422;DHT22;4248;48.196;10.924;2023-05-10T10:47:46;18.10;48.30
8422;DHT22;4248;48.196;10.924;2023-05-10T10:50:12;18.30;46.40
8422;DHT22;4248;48.196;10.924;2023-05-10T10:52:46;18.50;46.30
8422;DHT22;4248;48.196;10.924;2023-05-10T10:55:18;18.90;46.60
8422;DHT22;4248;48.196;10.924;2023-05-10T10:57:48;19.20;45.50
8422;DHT22;4248;48.196;10.924;2023-05-10T11:02:53;19.60;44.30
8422;DHT22;4248;48.196;10.924;2023-05-10T11:05:40;19.50;43.60
8422;DHT22;4248;48.196;10.924;2023-05-10T11:08:18;19.40;43.30
8422;DHT22;4248;48.196;10.924;2023-05-10T11:15:53;19.40;43.30
8422;DHT22;4248;48.196;10.924;2023-05-10T11:21:00;19.10;45.10
8422;DHT22;4248;48.196;10.924;2023-05-10T11:23:47;18.90;44.40
8422;DHT22;4248;48.196;10.924;2023-05-10T11:26:13;18.90;43.90
8422;DHT22;4248;48.196;10.924;2023-05-10T11:28:48;18.50;43.10
8422;DHT22;4248;48.196;10.924;2023-05-10T11:31:15;18.40;42.80
8422;DHT22;4248;48.196;10.924;2023-05-10T11:33:45;18.30;43.50
8422;DHT22;4248;48.196;10.924;2023-05-10T11:36:16;18.10;42.80
8422;DHT22;4248;48.196;10.924;2023-05-10T11:38:42;18.20;42.80
8422;DHT22;4248;48.196;10.924;2023-05-10T11:41:12;18.10;42.70
8422;DHT22;4248;48.196;10.924;2023-05-10T11:43:41;18.30;43.10
8422;DHT22;4248;48.196;10.924;2023-05-10T11:46:09;18.40;42.10
8422;DHT22;4248;48.196;10.924;2023-05-10T11:48:36;18.70;41.70
8422;DHT22;4248;48.196;10.924;2023-05-10T11:51:02;18.50;41.90
8422;DHT22;4248;48.196;10.924;2023-05-10T11:53:30;18.60;41.60
8422;DHT22;4248;48.196;10.924;2023-05-10T11:56:03;18.50;42.20
8422;DHT22;4248;48.196;10.924;2023-05-10T11:58:28;18.40;42.10
8422;DHT22;4248;48.196;10.924;2023-05-10T12:00:54;18.40;42.60
8422;DHT22;4248;48.196;10.924;2023-05-10T12:03:20;18.60;42.80
8422;DHT22;4248;48.196;10.924;2023-05-10T12:05:45;18.70;42.30
8422;DHT22;4248;48.196;10.924;2023-05-10T12:08:12;18.50;41.10
8422;DHT22;4248;48.196;10.924;2023-05-10T12:10:38;18.60;42.10
8422;DHT22;4248;48.196;10.924;2023-05-10T12:13:04;18.60;41.20
8422;DHT22;4248;48.196;10.924;2023-05-10T12:15:29;18.30;40.00
8422;DHT22;4248;48.196;10.924;2023-05-10T12:17:56;18.40;40.50
8422;DHT22;4248;48.196;10.924;2023-05-10T12:20:23;18.60;40.50
8422;DHT22;4248;48.196;10.924;2023-05-10T12:22:51;18.70;40.40
8422;DHT22;4248;48.196;10.924;2023-05-10T12:25:21;18.50;40.20
8422;DHT22;4248;48.196;10.924;2023-05-10T12:27:52;18.40;40.70
8422;DHT22;4248;48.196;10.924;2023-05-10T12:30:21;18.20;40.40
8422;DHT22;4248;48.196;10.924;2023-05-10T12:32:47;18.10;41.40
8422;DHT22;4248;48.196;10.924;2023-05-10T12:35:13;18.10;41.50
8422;DHT22;4248;48.196;10.924;2023-05-10T12:37:39;18.20;41.60
8422;DHT22;4248;48.196;10.924;2023-05-10T12:40:09;18.20;42.40
8422;DHT22;4248;48.196;10.924;2023-05-10T12:42:36;18.10;40.70
8422;DHT22;4248;48.196;10.924;2023-05-10T12:45:03;17.80;41.80
8422;DHT22;4248;48.196;10.924;2023-05-10T12:47:29;17.50;42.60
8422;DHT22;4248;48.196;10.924;2023-05-10T12:49:55;17.30;43.30
8422;DHT22;4248;48.196;10.924;2023-05-10T12:52:21;16.90;44.80
8422;DHT22;4248;48.196;10.924;2023-05-10T12:54:47;16.90;44.90
8422;DHT22;4248;48.196;10.924;2023-05-10T12:57:13;16.70;45.00
8422;DHT22;4248;48.196;10.924;2023-05-10T12:59:38;16.70;45.00
8422;DHT22;4248;48.196;10.924;2023-05-10T13:02:04;16.60;46.50
8422;DHT22;4248;48.196;10.924;2023-05-10T13:04:31;16.40;47.70
8422;DHT22;4248;48.196;10.924;2023-05-10T13:06:56;16.40;47.30
8422;DHT22;4248;48.196;10.924;2023-05-10T13:09:24;16.50;46.90
8422;DHT22;4248;48.196;10.924;2023-05-10T13:11:50;16.80;46.50
8422;DHT22;4248;48.196;10.924;2023-05-10T13:14:16;16.80;46.40
8422;DHT22;4248;48.196;10.924;2023-05-10T13:16:42;16.90;45.90
8422;DHT22;4248;48.196;10.924;2023-05-10T13:19:08;17.20;45.10
8422;DHT22;4248;48.196;10.924;2023-05-10T13:21:34;17.10;45.00
8422;DHT22;4248;48.196;10.924;2023-05-10T13:23:59;17.00;44.90
8422;DHT22;4248;48.196;10.924;2023-05-10T13:26:26;17.10;45.00
8422;DHT22;4248;48.196;10.924;2023-05-10T13:28:52;17.30;45.10
8422;DHT22;4248;48.196;10.924;2023-05-10T13:31:17;17.30;44.60
8422;DHT22;4248;48.196;10.924;2023-05-10T13:33:43;17.20;44.20
8422;DHT22;4248;48.196;10.924;2023-05-10T13:36:08;17.00;44.80
8422;DHT22;4248;48.196;10.924;2023-05-10T13:38:34;17.00;44.90
8422;DHT22;4248;48.196;10.924;2023-05-10T13:41:00;17.00;44.10
8422;DHT22;4248;48.196;10.924;2023-05-10T13:43:25;16.80;44.70
8422;DHT22;4248;48.196;10.924;2023-05-10T13:45:51;17.00;44.30
8422;DHT22;4248;48.196;10.924;2023-05-10T13:48:17;17.10;43.80
8422;DHT22;4248;48.196;10.924;2023-05-10T13:50:43;16.90;44.20
8422;DHT22;4248;48.196;10.924;2023-05-10T13:53:08;16.70;44.60
8422;DHT22;4248;48.196;10.924;2023-05-10T13:55:34;16.80;44.70
8422;DHT22;4248;48.196;10.924;2023-05-10T13:58:00;16.90;44.80
8422;DHT22;4248;48.196;10.924;2023-05-10T14:00:26;16.80;44.70
8422;DHT22;4248;48.196;10.924;2023-05-10T14:02:52;16.60;45.90
8422;DHT22;4248;48.196;10.924;2023-05-10T14:05:17;16.50;46.10
8422;DHT22;4248;48.196;10.924;2023-05-10T14:07:43;16.20;47.20
8422;DHT22;4248;48.196;10.924;2023-05-10T14:10:09;15.90;48.40
8422;DHT22;4248;48.196;10.924;2023-05-10T14:12:34;15.80;48.70
8422;DHT22;4248;48.196;10.924;2023-05-10T14:15:00;15.70;48.80
8422;DHT22;4248;48.196;10.924;2023-05-10T14:17:26;15.50;50.50
8422;DHT22;4248;48.196;10.924;2023-05-10T14:19:52;15.20;50.60
8422;DHT22;4248;48.196;10.924;2023-05-10T14:22:18;15.00;52.30
8422;DHT22;4248;48.196;10.924;2023-05-10T14:24:43;14.80;53.30
8422;DHT22;4248;48.196;10.924;2023-05-10T14:27:12;14.70;54.20
8422;DHT22;4248;48.196;10.924;2023-05-10T14:29:38;14.60;55.70
8422;DHT22;4248;48.196;10.924;2023-05-10T14:32:03;14.50;55.80
8422;DHT22;4248;48.196;10.924;2023-05-10T14:34:29;14.40;57.30
8422;DHT22;4248;48.196;10.924;2023-05-10T14:36:54;14.20;58.10
8422;DHT22;4248;48.196;10.924;2023-05-10T14:39:20;14.20;59.40
8422;DHT22;4248;48.196;10.924;2023-05-10T14:41:46;14.20;60.30
8422;DHT22;4248;48.196;10.924;2023-05-10T14:44:12;14.10;61.70
8422;DHT22;4248;48.196;10.924;2023-05-10T14:46:38;14.10;61.90
8422;DHT22;4248;48.196;10.924;2023-05-10T14:49:04;14.00;61.20
8422;DHT22;4248;48.196;10.924;2023-05-10T14:51:30;14.00;60.90
8422;DHT22;4248;48.196;10.924;2023-05-10T14:53:56;14.00;61.30
8422;DHT22;4248;48.196;10.924;2023-05-10T14:56:22;13.90;61.70
8422;DHT22;4248;48.196;10.924;2023-05-10T14:58:49;14.00;62.00
8422;DHT22;4248;48.196;10.924;2023-05-10T15:01:14;14.00;62.00
8422;DHT22;4248;48.196;10.924;2023-05-10T15:03:40;14.10;62.20
8422;DHT22;4248;48.196;10.924;2023-05-10T15:06:07;14.20;61.90
8422;DHT22;4248;48.196;10.924;2023-05-10T15:08:33;14.40;60.80
8422;DHT22;4248;48.196;10.924;2023-05-10T15:10:58;14.40;60.80
8422;DHT22;4248;48.196;10.924;2023-05-10T15:13:25;14.40;60.70
8422;DHT22;4248;48.196;10.924;2023-05-10T15:15:51;14.50;60.30
8422;DHT22;4248;48.196;10.924;2023-05-10T15:18:16;14.50;60.00
8422;DHT22;4248;48.196;10.924;2023-05-10T15:20:42;14.70;59.50
8422;DHT22;4248;48.196;10.924;2023-05-10T15:23:08;14.80;58.70
8422;DHT22;4248;48.196;10.924;2023-05-10T15:25:33;14.90;58.20
8422;DHT22;4248;48.196;10.924;2023-05-10T15:28:03;14.90;58.10
8422;DHT22;4248;48.196;10.924;2023-05-10T15:30:29;14.70;58.30
8422;DHT22;4248;48.196;10.924;2023-05-10T15:32:55;14.60;58.60
8422;DHT22;4248;48.196;10.924;2023-05-10T15:35:21;14.50;58.70
8422;DHT22;4248;48.196;10.924;2023-05-10T15:37:47;14.30;59.10
8422;DHT22;4248;48.196;10.924;2023-05-10T15:40:13;13.70;60.70
8422;DHT22;4248;48.196;10.924;2023-05-10T15:42:39;13.10;63.70
8422;DHT22;4248;48.196;10.924;2023-05-10T15:45:05;12.80;65.50
8422;DHT22;4248;48.196;10.924;2023-05-10T15:47:31;12.70;66.60
8422;DHT22;4248;48.196;10.924;2023-05-10T15:49:57;12.60;66.90
8422;DHT22;4248;48.196;10.924;2023-05-10T15:52:22;12.60;66.80
8422;DHT22;4248;48.196;10.924;2023-05-10T15:54:49;12.50;66.90
8422;DHT22;4248;48.196;10.924;2023-05-10T15:57:14;12.50;67.10
8422;DHT22;4248;48.196;10.924;2023-05-10T15:59:40;12.40;67.30
8422;DHT22;4248;48.196;10.924;2023-05-10T16:02:06;12.40;67.80
8422;DHT22;4248;48.196;10.924;2023-05-10T16:04:33;12.40;68.20
8422;DHT22;4248;48.196;10.924;2023-05-10T16:06:58;12.40;68.20
8422;DHT22;4248;48.196;10.924;2023-05-10T16:09:24;12.50;68.00
8422;DHT22;4248;48.196;10.924;2023-05-10T16:11:50;12.50;68.00